Terminal Aerodrome Forecast
Issued by NWS

Home | Current Version | Previous Version | Text Only | Print | Product List | Glossary On
Versions: 1 2 3 4 5 6 7 8 9 10 11 12 13 14 15 16 17 18 19 20 21 22 23 24
863
FTUS41 KPBZ 190536
TAFLBE
TAF
KLBE 190536Z 1906/2006 27025G35KT P6SM -SHRA OVC015
     FM191200 28020G30KT P6SM OVC020
     FM191800 27015G25KT P6SM -SHSN OVC020
     FM200200 27013G23KT P6SM BKN025=

USA.gov is the U.S. government's official web portal to all federal, state and local government web resources and services.